WMSA/SZB METAR and TAF weather

Enter ICAO airport designator
Station Type Date Time Source
WMSA METAR 2021/07/28 03:00 UTC NOAA

WMSA 280300Z 15011KT 120V190 9999 FEW018 30/23 Q1011


Station Type Date Time Source
WMSA Decoded METAR 2021/07/28 03:00 UTC NOAA

Subang/Sultan Abdul Aziz Shah Airport, Malaysia (WMSA) 03-07N 101-32E
Jul 27, 2021 - 11:00 PM EDT / 2021.07.28 0300 UTC
Wind: from the SSE (150 degrees) at 13 MPH (11 KT) (direction variable):0
Visibility: greater than 7 mile(s):0
Sky conditions: mostly clear
Temperature: 86 F (30 C)
Heat index: 93.4 F (34.1 C):1
Dew Point: 73 F (23 C)
Relative Humidity: 66%
Pressure (altimeter): 29.85 in. Hg (1011 hPa)
ob: WMSA 280300Z 15011KT 120V190 9999 FEW018 30/23 Q1011
cycle: 3

Station Type Date Time Source
WMSA TAF 2021/07/27 18:09 UTC NOAA

TAF WMSA 271700Z 2718/2818 VRB02KT 9999 FEW026 PROB30
TEMPO 2723/2804 5000 TSRA FEW017CB

Example: see airport list